Time;durP1;ratioP1;P1;durP2;ratioP2;P2;SDS_P1;SDS_P2;PMS_P1;PMS_P2;Temp;Humidity;BMP_temperature;BMP_pressure;BME280_temperature;BME280_humidity;BME280_pressure;Samples;Min_cycle;Max_cycle;Signal;HPM_P1;HPM_P2
2022/10/03 00:01:35;;;;;;;1.85;0.70;;;;;;;10.64;66.05;94834.06;5050169;28;20025;-76
2022/10/03 00:04:06;;;;;;;1.52;0.70;;;;;;;10.41;66.60;94822.94;5050616;28;20041;-76
2022/10/03 00:06:34;;;;;;;;;;;;;;;10.31;67.29;94819.47;5049701;28;20404;-76
2022/10/03 00:09:45;;;;;;;1.80;1.00;;;;;;;10.12;68.39;94817.50;5066307;28;20011;-76
2022/10/03 00:12:46;;;;;;;2.90;0.90;;;;;;;10.19;69.01;94825.59;5066356;28;20044;-76
2022/10/03 00:15:26;;;;;;;1.98;0.80;;;;;;;10.23;69.26;94795.88;5062625;28;20528;-76
2022/10/03 00:17:54;;;;;;;2.55;0.90;;;;;;;10.24;69.32;94811.31;5039428;28;20101;-76
2022/10/03 00:20:58;;;;;;;2.22;1.00;;;;;;;10.17;69.76;94804.97;5072363;28;20029;-76
2022/10/03 00:23:23;;;;;;;1.80;1.10;;;;;;;10.20;69.97;94796.94;5073427;28;20503;-76
2022/10/03 00:26:29;;;;;;;2.33;1.20;;;;;;;10.21;69.71;94783.00;5069492;28;20025;-76
2022/10/03 00:29:22;;;;;;;2.53;1.10;;;;;;;10.04;70.05;94780.97;5036163;28;20049;-76
2022/10/03 00:32:19;;;;;;;2.83;1.20;;;;;;;9.94;70.62;94780.03;5053071;28;20032;-76
2022/10/03 00:35:00;;;;;;;2.20;1.10;;;;;;;10.02;70.71;94769.88;5056611;28;20500;-76
2022/10/03 00:37:34;;;;;;;1.70;1.10;;;;;;;10.06;70.04;94781.66;5052938;28;20072;-76
2022/10/03 00:40:18;;;;;;;2.08;1.40;;;;;;;9.90;70.37;94786.44;5036917;28;20450;-76
2022/10/03 00:43:05;;;;;;;2.22;1.23;;;;;;;9.82;71.41;94795.66;5052858;28;20029;-76
2022/10/03 00:45:43;;;;;;;3.15;1.20;;;;;;;9.94;70.63;94786.06;5056138;28;20045;-76
2022/10/03 00:48:25;;;;;;;1.63;1.17;;;;;;;9.81;70.57;94783.66;5054345;28;20123;-76
2022/10/03 00:51:10;;;;;;;2.00;1.05;;;;;;;9.76;71.14;94790.16;5036133;28;20499;-76
2022/10/03 00:53:42;;;;;;;3.13;1.20;;;;;;;9.70;71.31;94791.47;5038974;28;20493;-76
2022/10/03 00:56:40;;;;;;;2.60;1.15;;;;;;;9.70;71.49;94786.28;5072681;28;20043;-76
2022/10/03 00:59:32;;;;;;;2.05;1.20;;;;;;;9.57;71.63;94795.97;5072407;28;20037;-76
2022/10/03 01:01:57;;;;;;;2.85;1.20;;;;;;;9.66;71.43;94797.81;5070588;28;20406;-76
2022/10/03 01:04:29;;;;;;;2.38;1.40;;;;;;;9.70;70.64;94801.84;5036154;28;20025;-76
2022/10/03 01:06:58;;;;;;;2.38;1.17;;;;;;;9.63;70.07;94792.88;5052331;28;20414;-76
2022/10/03 01:09:37;;;;;;;3.28;1.40;;;;;;;9.42;71.52;94795.41;5052513;28;20087;-76
2022/10/03 01:12:10;;;;;;;2.63;1.15;;;;;;;9.42;71.80;94787.63;5039103;28;20044;-76
2022/10/03 01:14:57;;;;;;;2.20;1.25;;;;;;;9.47;71.34;94775.13;5035662;28;20025;-76
2022/10/03 01:17:22;;;;;;;1.92;1.30;;;;;;;9.31;71.67;94783.28;5053770;28;20048;-76
2022/10/03 01:20:00;;;;;;;1.65;1.10;;;;;;;9.37;72.37;94787.97;5068886;28;20033;-76
2022/10/03 01:22:46;;;;;;;2.60;1.20;;;;;;;9.38;72.64;94787.03;5071324;28;20039;-76
2022/10/03 01:25:27;;;;;;;3.33;1.23;;;;;;;9.42;72.35;94779.84;5071333;28;20033;-76
2022/10/03 01:31:07;;;;;;;3.03;1.20;;;;;;;9.39;72.56;94780.91;5057516;28;20067;-76
2022/10/03 01:33:52;;;;;;;3.00;1.25;;;;;;;9.39;72.87;94782.69;5035849;28;20106;-76
2022/10/03 01:36:19;;;;;;;2.60;1.20;;;;;;;9.39;72.76;94773.13;5051842;28;20060;-76
2022/10/03 01:39:00;;;;;;;3.00;1.15;;;;;;;9.33;72.84;94763.25;5053828;28;20048;-76
2022/10/03 01:41:45;;;;;;;1.80;1.10;;;;;;;9.34;72.49;94762.31;5068405;28;20029;-76
2022/10/03 01:44:39;;;;;;;1.95;1.20;;;;;;;9.46;72.63;94763.09;5053001;28;20045;-76
2022/10/03 01:47:04;;;;;;;3.25;1.40;;;;;;;9.46;72.57;94759.69;5052058;28;20506;-76
2022/10/03 01:49:35;;;;;;;2.95;1.20;;;;;;;9.42;71.97;94766.88;5056416;28;20025;-76
2022/10/03 01:52:19;;;;;;;2.83;1.60;;;;;;;9.48;72.25;94774.19;5051900;28;20041;-76
2022/10/03 01:54:54;;;;;;;1.90;1.10;;;;;;;9.51;71.94;94765.34;5051818;28;20037;-76
2022/10/03 01:57:37;;;;;;;2.58;1.50;;;;;;;9.53;71.26;94768.63;5056755;28;20037;-76
2022/10/03 02:00:06;;;;;;;2.35;1.40;;;;;;;9.58;71.87;94764.72;5051509;28;20540;-76
2022/10/03 02:02:49;;;;;;;3.47;1.33;;;;;;;9.59;71.55;94752.59;5051583;28;20028;-76
2022/10/03 02:05:42;;;;;;;2.58;1.38;;;;;;;9.62;71.12;94755.75;5051857;28;20039;-77
2022/10/03 02:08:27;;;;;;;2.67;1.30;;;;;;;9.57;71.34;94760.47;5069441;28;20052;-76
2022/10/03 02:11:00;;;;;;;2.63;1.20;;;;;;;9.58;71.42;94753.50;5071251;28;20043;-76
2022/10/03 02:13:35;;;;;;;1.75;1.10;;;;;;;9.64;70.72;94755.63;5071260;28;20044;-76
2022/10/03 02:16:29;;;;;;;1.67;1.13;;;;;;;9.72;70.38;94744.63;5062424;28;20078;-76
2022/10/03 02:19:02;;;;;;;1.90;1.10;;;;;;;9.68;70.40;94749.25;5052773;28;20041;-76
2022/10/03 02:21:34;;;;;;;4.28;1.20;;;;;;;9.79;70.29;94746.59;5051154;28;20174;-76
2022/10/03 02:24:05;;;;;;;4.55;1.15;;;;;;;9.81;70.28;94747.31;5020585;28;20130;-76
2022/10/03 02:27:05;;;;;;;1.85;1.15;;;;;;;9.78;70.08;94744.97;5052920;28;20025;-77
2022/10/03 02:29:42;;;;;;;2.28;1.50;;;;;;;9.88;69.99;94739.03;5034324;28;20560;-76
2022/10/03 02:32:44;;;;;;;1.50;1.10;;;;;;;9.92;69.66;94737.81;5052138;28;20037;-76
2022/10/03 02:35:32;;;;;;;1.92;1.20;;;;;;;9.93;69.81;94747.28;5054910;28;20090;-76
2022/10/03 02:38:25;;;;;;;2.75;1.20;;;;;;;9.90;69.96;94755.31;5052372;28;20037;-76
2022/10/03 02:40:57;;;;;;;1.60;1.10;;;;;;;9.91;70.49;94746.56;5050598;28;20384;-76
2022/10/03 02:43:55;;;;;;;1.98;1.25;;;;;;;9.90;70.00;94747.53;5053888;28;20072;-76
2022/10/03 02:46:35;;;;;;;2.80;1.58;;;;;;;9.87;70.39;94750.38;5050707;28;20036;-76
2022/10/03 02:49:03;;;;;;;2.73;1.30;;;;;;;10.03;69.79;94745.59;5052114;28;20044;-76
2022/10/03 02:51:43;;;;;;;2.63;1.33;;;;;;;9.99;69.60;94733.78;5052803;28;20060;-76
2022/10/03 02:54:43;;;;;;;3.65;1.20;;;;;;;10.10;70.96;94745.91;5050387;28;20495;-76
2022/10/03 02:57:08;;;;;;;2.30;1.40;;;;;;;10.10;70.31;94746.72;5051620;28;20122;-76
2022/10/03 02:59:52;;;;;;;3.83;1.60;;;;;;;10.06;70.70;94751.34;5067475;28;20087;-76
2022/10/03 03:02:20;;;;;;;2.35;1.30;;;;;;;9.98;71.16;94751.13;5069236;28;20037;-76
2022/10/03 03:05:04;;;;;;;3.53;1.40;;;;;;;10.04;70.95;94755.00;5070716;28;20509;-76
2022/10/03 03:07:58;;;;;;;3.50;1.70;;;;;;;10.15;70.41;94744.56;5071196;28;20032;-76
2022/10/03 03:10:54;;;;;;;4.90;1.90;;;;;;;10.03;70.60;94748.19;5066527;28;20056;-76
2022/10/03 03:13:41;;;;;;;2.40;1.40;;;;;;;10.08;70.71;94743.41;5055132;28;20105;-76
2022/10/03 03:16:15;;;;;;;2.90;1.50;;;;;;;10.09;70.42;94742.47;5069938;28;20039;-76
2022/10/03 03:19:11;;;;;;;3.65;1.50;;;;;;;9.84;70.95;94747.06;5069855;28;20044;-76
2022/10/03 03:21:43;;;;;;;3.63;2.47;;;;;;;9.77;70.82;94735.53;5051079;28;20495;-76
2022/10/03 03:24:41;;;;;;;2.35;1.70;;;;;;;9.74;71.46;94747.94;5064207;28;20025;-76
2022/10/03 03:27:25;;;;;;;3.08;1.60;;;;;;;9.66;71.37;94734.75;5049889;28;20070;-76
2022/10/03 03:29:51;;;;;;;4.25;1.40;;;;;;;9.65;70.99;94740.91;5053189;28;20035;-76
2022/10/03 03:32:43;;;;;;;2.50;1.70;;;;;;;9.49;72.34;94742.09;5051071;28;20479;-76
2022/10/03 03:35:34;;;;;;;3.50;1.63;;;;;;;9.63;71.97;94735.81;5035270;28;20091;-76
2022/10/03 03:38:13;;;;;;;3.78;1.75;;;;;;;9.72;71.71;94732.50;5053363;28;20029;-76
2022/10/03 03:41:05;;;;;;;3.13;1.70;;;;;;;9.55;71.85;94731.25;5034137;28;20108;-76
2022/10/03 03:43:49;;;;;;;3.95;2.20;;;;;;;9.57;72.52;94728.53;5051887;28;20537;-77
2022/10/03 03:46:52;;;;;;;2.72;1.73;;;;;;;9.51;72.26;94724.66;5063863;28;20036;-77
2022/10/03 03:49:28;;;;;;;2.70;1.70;;;;;;;9.53;72.25;94724.56;5050800;28;20503;-78
2022/10/03 03:52:03;;;;;;;2.65;1.80;;;;;;;9.43;73.05;94736.59;5048356;28;20041;-78
2022/10/03 03:55:06;;;;;;;5.32;1.70;;;;;;;9.52;73.04;94725.47;5049652;28;20021;-77
2022/10/03 03:58:06;;;;;;;3.17;1.45;;;;;;;9.38;73.41;94722.22;5067602;28;20413;-78
2022/10/03 04:00:55;;;;;;;2.08;1.27;;;;;;;9.52;73.06;94709.91;5048442;28;20032;-78
2022/10/03 04:03:31;;;;;;;3.15;1.30;;;;;;;9.43;72.97;94700.31;5067430;28;20049;-76
2022/10/03 04:06:01;;;;;;;3.17;1.40;;;;;;;9.62;72.66;94711.66;5063961;28;20033;-76
2022/10/03 04:08:29;;;;;;;3.13;1.30;;;;;;;9.66;72.72;94698.44;5071216;28;20540;-76
2022/10/03 04:11:22;;;;;;;2.80;1.38;;;;;;;9.68;73.02;94704.34;5070314;28;20039;-76
2022/10/03 04:14:06;;;;;;;3.13;1.45;;;;;;;9.74;72.98;94693.44;5065391;28;20029;-76
2022/10/03 04:19:43;;;;;;;1.90;1.30;;;;;;;9.95;73.06;94703.88;5049527;28;20178;-76
2022/10/03 04:22:41;;;;;;;5.47;1.58;;;;;;;10.05;72.50;94695.16;5068089;28;20134;-76
2022/10/03 04:25:48;;;;;;;2.40;1.40;;;;;;;10.07;72.46;94697.66;5066458;28;20056;-76
2022/10/03 04:28:25;;;;;;;3.67;1.40;;;;;;;10.12;71.64;94695.50;5062729;28;20479;-76
2022/10/03 04:31:15;;;;;;;2.70;1.70;;;;;;;9.98;72.40;94701.84;5068939;28;20020;-76
2022/10/03 04:33:52;;;;;;;3.03;1.95;;;;;;;10.03;71.11;94691.09;5064337;28;20064;-76
2022/10/03 04:36:27;;;;;;;3.42;1.95;;;;;;;9.95;71.84;94706.47;5068435;28;20052;-76
2022/10/03 04:39:15;;;;;;;2.83;1.70;;;;;;;10.04;71.92;94700.50;5070794;28;20046;-76
2022/10/03 04:41:54;;;;;;;3.83;1.98;;;;;;;9.91;72.43;94711.06;5064386;28;20103;-76
2022/10/03 04:44:25;;;;;;;4.18;2.53;;;;;;;9.96;72.48;94711.50;5016173;28;20032;-76
2022/10/03 04:46:57;;;;;;;3.15;2.05;;;;;;;10.05;71.40;94707.34;5051452;28;20031;-76
2022/10/03 04:49:30;;;;;;;5.22;2.28;;;;;;;9.88;72.20;94715.69;5052644;28;20036;-76
2022/10/03 04:52:04;;;;;;;7.10;2.00;;;;;;;9.90;72.46;94687.84;5059499;28;20060;-76
2022/10/03 04:54:48;;;;;;;4.45;2.40;;;;;;;9.82;72.73;94702.25;5061047;28;20033;-76
2022/10/03 04:58:04;;;;;;;7.22;2.30;;;;;;;9.58;73.85;94709.41;5060370;28;20479;-75
2022/10/03 05:00:49;;;;;;;3.40;2.40;;;;;;;9.37;74.57;94712.81;5043128;28;20459;-76
2022/10/03 05:03:33;;;;;;;4.35;2.30;;;;;;;9.64;73.99;94724.50;5063285;28;20032;-76
2022/10/03 05:06:23;;;;;;;3.45;2.33;;;;;;;9.61;74.31;94711.78;5061471;28;20060;-76
2022/10/03 05:09:16;;;;;;;5.78;2.25;;;;;;;9.83;73.57;94698.72;5058255;28;20120;-76
2022/10/03 05:11:48;;;;;;;4.75;2.35;;;;;;;9.86;73.12;94713.19;5032888;28;20494;-76
2022/10/03 05:14:49;;;;;;;4.15;2.58;;;;;;;9.88;73.25;94710.50;5045896;28;20036;-76
2022/10/03 05:17:19;;;;;;;4.82;2.17;;;;;;;10.02;72.47;94712.78;5061125;28;20040;-76
2022/10/03 05:20:11;;;;;;;6.72;2.30;;;;;;;10.16;71.82;94702.06;5043615;28;20123;-76
2022/10/03 05:23:06;;;;;;;7.70;2.10;;;;;;;10.14;72.30;94713.53;5064247;28;20584;-76
2022/10/03 05:25:59;;;;;;;4.43;2.85;;;;;;;10.20;72.41;94711.28;5059500;28;20017;-76
2022/10/03 05:28:49;;;;;;;4.00;2.30;;;;;;;10.38;71.68;94706.34;5068843;28;20029;-76
2022/10/03 05:31:51;;;;;;;5.45;2.65;;;;;;;10.28;72.26;94714.09;5071263;28;20036;-76
2022/10/03 05:34:50;;;;;;;6.45;2.75;;;;;;;10.40;71.72;94699.25;5070316;28;20056;-76
2022/10/03 05:37:25;;;;;;;5.57;2.38;;;;;;;10.49;71.88;94700.25;5068079;28;20079;-76
2022/10/03 05:40:28;;;;;;;3.90;2.45;;;;;;;10.54;72.04;94694.69;5072294;28;20495;-79
2022/10/03 05:43:11;;;;;;;5.90;2.72;;;;;;;10.55;71.75;94696.31;5071736;28;20059;-79
2022/10/03 05:45:45;;;;;;;4.70;2.78;;;;;;;10.68;71.36;94702.94;5051585;28;20045;-76
2022/10/03 05:48:19;;;;;;;6.47;2.83;;;;;;;10.68;71.41;94694.31;5063543;28;20049;-75
2022/10/03 05:51:37;;;;;;;4.18;2.95;;;;;;;10.76;71.64;94688.47;5069048;28;20047;-76
2022/10/03 05:54:24;;;;;;;6.60;2.58;;;;;;;10.83;71.69;94674.00;5058345;28;20040;-76
2022/10/03 05:57:19;;;;;;;7.18;2.67;;;;;;;11.24;71.19;94665.22;5064661;28;20028;-80
2022/10/03 05:59:47;;;;;;;5.45;2.80;;;;;;;11.43;70.30;94655.78;5050809;28;20037;-75
2022/10/03 06:02:31;;;;;;;2.92;1.60;;;;;;;11.72;67.73;94661.00;5069500;28;20132;-75
2022/10/03 06:05:06;;;;;;;3.67;1.30;;;;;;;11.64;67.71;94661.66;5045983;28;20060;-78
2022/10/03 06:08:08;;;;;;;4.93;1.80;;;;;;;11.76;67.76;94665.78;5069777;28;20036;-80
2022/10/03 06:10:53;;;;;;;2.40;1.70;;;;;;;11.99;67.58;94671.53;5063034;28;20020;-76
2022/10/03 06:13:20;;;;;;;6.85;4.25;;;;;;;12.26;66.87;94696.06;5061848;28;20040;-76
2022/10/03 06:16:23;;;;;;;8.63;3.80;;;;;;;12.17;66.81;94702.06;5070541;28;20563;-76
2022/10/03 06:19:10;;;;;;;9.25;5.22;;;;;;;12.07;67.48;94704.72;5045717;28;20518;-76
2022/10/03 06:21:48;;;;;;;10.23;5.05;;;;;;;11.85;67.47;94718.78;5050290;28;20021;-76
2022/10/03 06:24:31;;;;;;;6.35;3.58;;;;;;;11.75;67.58;94717.97;5050628;28;20029;-76
2022/10/03 06:27:28;;;;;;;9.23;3.28;;;;;;;11.62;68.15;94721.66;5051908;28;20083;-75
2022/10/03 06:30:10;;;;;;;5.65;2.83;;;;;;;11.53;68.59;94716.44;5051360;28;20060;-76
2022/10/03 06:33:00;;;;;;;5.78;2.97;;;;;;;11.63;68.29;94717.28;5051643;28;20112;-76
2022/10/03 06:35:51;;;;;;;5.78;2.78;;;;;;;11.61;67.96;94721.78;5049210;28;20106;-76
2022/10/03 06:38:52;;;;;;;11.20;3.10;;;;;;;11.73;67.39;94714.66;5050203;28;20033;-76
2022/10/03 06:41:20;;;;;;;5.53;2.60;;;;;;;11.79;67.62;94725.38;5048995;28;20078;-76
2022/10/03 06:43:46;;;;;;;3.78;2.38;;;;;;;11.85;67.18;94711.84;5050352;28;20076;-76
2022/10/03 06:46:44;;;;;;;3.72;2.60;;;;;;;11.84;68.21;94711.97;5050163;28;20052;-76
2022/10/03 06:49:31;;;;;;;5.40;3.80;;;;;;;11.78;68.22;94723.72;5050155;28;20044;-76
2022/10/03 06:52:02;;;;;;;4.38;2.40;;;;;;;11.76;67.90;94724.81;5051760;28;20037;-76
2022/10/03 06:55:06;;;;;;;3.78;2.38;;;;;;;11.87;68.03;94731.69;5050395;28;20029;-76
2022/10/03 06:57:58;;;;;;;6.13;2.58;;;;;;;12.04;67.71;94736.22;5051830;28;20037;-76
2022/10/03 07:00:31;;;;;;;4.63;2.15;;;;;;;12.17;66.70;94722.91;5033615;28;20119;-76
2022/10/03 07:03:26;;;;;;;5.78;2.33;;;;;;;12.38;66.84;94728.78;5033609;28;20048;-76
2022/10/03 07:05:57;;;;;;;4.78;2.30;;;;;;;12.38;66.86;94728.78;5050395;28;20483;-78
2022/10/03 07:08:53;;;;;;;6.45;2.85;;;;;;;12.52;67.01;94730.94;5051930;28;20047;-78
2022/10/03 07:11:39;;;;;;;7.25;2.97;;;;;;;12.66;66.70;94732.28;5051438;28;20491;-77
2022/10/03 07:14:23;;;;;;;7.47;3.42;;;;;;;12.64;66.12;94733.38;5051365;28;20037;-77
2022/10/03 07:17:04;;;;;;;4.40;2.60;;;;;;;12.83;66.28;94748.16;5050076;28;20021;-77
2022/10/03 07:19:42;;;;;;;10.35;2.85;;;;;;;12.87;65.59;94763.38;5033398;28;20036;-77
2022/10/03 07:22:40;;;;;;;6.40;2.88;;;;;;;12.92;65.51;94768.13;5050329;28;20498;-77
2022/10/03 07:25:24;;;;;;;9.23;3.00;;;;;;;12.89;65.37;94774.44;5033560;28;20513;-77
2022/10/03 07:28:23;;;;;;;9.35;3.08;;;;;;;13.00;65.13;94793.50;5051413;28;20029;-77
2022/10/03 07:31:28;;;;;;;5.55;3.03;;;;;;;12.91;65.54;94797.78;5050021;28;20033;-78
2022/10/03 07:34:05;;;;;;;7.10;3.40;;;;;;;12.92;66.03;94808.06;5050202;28;20040;-77
2022/10/03 07:39:26;;;;;;;27.25;13.55;;;;;;;12.80;67.24;94834.44;5036171;28;20114;-77
2022/10/03 07:42:12;;;;;;;10.10;5.88;;;;;;;12.74;68.16;94834.03;5050931;28;21098;-77
2022/10/03 07:44:43;;;;;;;11.43;6.75;;;;;;;12.71;68.00;94836.13;5046888;28;20033;-77
2022/10/03 07:47:18;;;;;;;9.18;6.50;;;;;;;12.61;69.63;94833.50;5051100;28;20043;-77
2022/10/03 07:50:01;;;;;;;14.18;7.65;;;;;;;12.45;69.95;94828.03;5049728;28;20442;-77
2022/10/03 07:53:01;;;;;;;12.07;6.47;;;;;;;12.10;71.58;94833.78;5049793;28;20499;-77
2022/10/03 07:55:26;;;;;;;11.63;6.68;;;;;;;12.00;72.06;94833.78;5044295;28;20421;-77
2022/10/03 07:58:19;;;;;;;9.63;5.65;;;;;;;11.88;72.32;94833.06;5051083;28;20113;-77
2022/10/03 08:00:49;;;;;;;8.27;5.10;;;;;;;11.91;72.57;94839.78;5050800;28;20032;-77
2022/10/03 08:03:39;;;;;;;10.50;4.90;;;;;;;11.83;73.71;94833.44;5051149;28;20360;-76
2022/10/03 08:06:49;;;;;;;7.63;5.07;;;;;;;11.70;74.16;94822.47;5049492;28;20036;-77
2022/10/03 08:09:45;;;;;;;9.80;4.93;;;;;;;11.65;74.15;94824.66;5008901;28;20052;-77
2022/10/03 08:12:48;;;;;;;11.48;5.70;;;;;;;11.53;75.74;94823.94;5008762;28;20034;-77
2022/10/03 08:15:55;;;;;;;12.80;7.15;;;;;;;11.60;75.90;94826.81;5061798;28;20072;-77
2022/10/03 08:18:54;;;;;;;10.20;5.30;;;;;;;11.68;76.54;94828.75;5042905;28;20049;-81
2022/10/03 08:21:44;;;;;;;8.07;5.93;;;;;;;11.68;77.07;94824.38;5049224;28;20519;-77
2022/10/03 08:24:15;;;;;;;18.30;6.55;;;;;;;11.78;76.55;94838.25;5050544;28;20048;-77
2022/10/03 08:26:47;;;;;;;;;;;;;;;11.78;76.76;94845.19;5049612;28;20028;-75
2022/10/03 08:29:54;;;;;;;10.00;5.05;;;;;;;12.01;73.93;94836.25;5050523;28;20663;-78
2022/10/03 08:32:32;;;;;;;7.93;5.53;;;;;;;11.97;75.71;94832.25;5030270;28;20045;-76
2022/10/03 08:35:20;;;;;;;11.88;5.57;;;;;;;12.00;75.56;94839.78;5053021;28;20529;-76
2022/10/03 08:38:33;;;;;;;9.50;5.55;;;;;;;12.13;75.71;94838.72;5054510;28;20041;-76
2022/10/03 08:41:32;;;;;;;9.30;4.97;;;;;;;12.23;75.15;94842.16;5037291;28;20036;-77
2022/10/03 08:44:16;;;;;;;9.07;5.03;;;;;;;12.28;74.76;94842.56;5054260;28;20060;-76
2022/10/03 08:47:08;;;;;;;6.85;4.90;;;;;;;12.43;74.79;94836.00;5054004;28;20056;-76
2022/10/03 08:50:04;;;;;;;9.98;4.80;;;;;;;12.50;74.48;94834.47;5054144;28;20056;-76
2022/10/03 08:52:59;;;;;;;9.43;4.80;;;;;;;12.58;76.19;94843.41;5036228;28;20056;-76
2022/10/03 08:55:41;;;;;;;8.23;4.82;;;;;;;12.79;71.59;94833.63;5052628;28;20036;-75
2022/10/03 08:58:37;;;;;;;8.27;4.75;;;;;;;12.68;72.18;94828.56;5053006;28;20041;-76
2022/10/03 09:01:33;;;;;;;9.43;5.10;;;;;;;12.74;72.15;94834.03;5034745;28;20033;-76
2022/10/03 09:04:16;;;;;;;8.85;4.95;;;;;;;12.74;72.00;94828.84;5073123;28;20134;-76
2022/10/03 09:06:48;;;;;;;8.20;4.72;;;;;;;12.89;71.75;94837.03;5073528;28;20033;-76
2022/10/03 09:09:50;;;;;;;6.20;4.55;;;;;;;12.96;72.89;94835.50;5073796;28;20214;-76
2022/10/03 09:12:44;;;;;;;8.75;4.75;;;;;;;13.13;73.19;94830.53;5072205;28;20498;-76
2022/10/03 09:15:32;;;;;;;5.65;4.05;;;;;;;13.44;71.12;94825.91;5073454;28;20052;-75
2022/10/03 09:18:31;;;;;;;6.07;3.35;;;;;;;13.57;70.88;94825.59;5073344;28;20039;-78
2022/10/03 09:21:30;;;;;;;4.35;3.30;;;;;;;13.50;72.17;94816.69;5073469;28;20028;-75
2022/10/03 09:24:20;;;;;;;8.70;4.05;;;;;;;13.57;72.63;94831.63;5072621;28;20029;-75
2022/10/03 09:27:15;;;;;;;8.95;4.28;;;;;;;13.68;73.29;94828.00;5073362;28;20128;-78
2022/10/03 09:30:18;;;;;;;5.65;3.42;;;;;;;13.86;73.17;94826.22;5073091;28;20047;-78
2022/10/03 09:33:15;;;;;;;5.57;3.45;;;;;;;14.01;73.19;94818.75;5072087;28;20037;-78
2022/10/03 09:36:17;;;;;;;5.53;2.90;;;;;;;14.17;71.67;94817.25;5073079;28;20056;-78
2022/10/03 09:38:58;;;;;;;3.05;2.20;;;;;;;14.24;69.92;94820.91;5055425;28;20564;-78
2022/10/03 09:41:44;;;;;;;4.13;2.50;;;;;;;14.32;68.42;94831.44;5073361;28;20032;-78
2022/10/03 09:44:34;;;;;;;3.00;2.20;;;;;;;14.28;68.20;94824.84;5071388;28;20538;-78
2022/10/03 09:47:27;;;;;;;3.45;2.33;;;;;;;14.35;67.44;94835.53;5073180;28;20064;-78
2022/10/03 09:50:18;;;;;;;3.38;2.22;;;;;;;14.36;67.92;94829.34;5072976;28;20089;-78
2022/10/03 09:53:11;;;;;;;5.22;2.17;;;;;;;14.42;68.62;94826.94;5072080;28;20114;-78
2022/10/03 09:56:06;;;;;;;5.90;2.33;;;;;;;14.46;67.71;94827.47;5071518;28;20025;-78
2022/10/03 09:58:43;;;;;;;3.42;2.13;;;;;;;14.61;67.02;94815.53;5072689;28;20475;-78
2022/10/03 10:01:09;;;;;;;3.10;2.13;;;;;;;14.62;67.38;94826.81;5071387;28;20231;-78
2022/10/03 10:03:53;;;;;;;2.92;2.13;;;;;;;14.72;65.98;94825.75;5071731;28;20536;-78
2022/10/03 10:06:37;;;;;;;4.47;2.22;;;;;;;14.62;64.97;94827.63;5072560;28;20028;-78
2022/10/03 10:09:21;;;;;;;5.53;2.45;;;;;;;14.68;65.16;94840.09;5071433;28;20060;-78
2022/10/03 10:12:05;;;;;;;3.03;2.30;;;;;;;14.63;64.88;94844.97;5072509;28;20154;-78
2022/10/03 10:14:54;;;;;;;3.92;2.40;;;;;;;14.49;63.61;94824.56;5072559;28;20028;-78
2022/10/03 10:17:43;;;;;;;4.35;2.42;;;;;;;14.61;63.79;94831.22;5071423;28;20032;-78
2022/10/03 10:20:33;;;;;;;4.97;2.90;;;;;;;14.59;62.71;94827.94;5072379;28;20494;-78
2022/10/03 10:23:23;;;;;;;5.32;2.47;;;;;;;14.71;62.88;94829.34;5072299;28;20035;-78
2022/10/03 10:26:08;;;;;;;3.30;2.70;;;;;;;14.81;62.45;94836.28;5071130;28;20107;-78
2022/10/03 10:28:40;;;;;;;3.40;2.05;;;;;;;14.80;61.00;94830.22;5072641;28;20060;-78
2022/10/03 10:31:26;;;;;;;3.38;2.08;;;;;;;14.86;60.70;94831.41;5072358;28;20054;-78
2022/10/03 10:34:15;;;;;;;3.67;2.38;;;;;;;14.96;61.19;94840.00;5072679;28;20078;-78
2022/10/03 10:37:02;;;;;;;7.93;6.20;;;;;;;14.97;60.15;94837.19;5070531;28;20581;-78
2022/10/03 10:39:39;;;;;;;5.65;2.90;;;;;;;15.03;59.13;94833.16;5071945;28;20036;-78
2022/10/03 10:42:13;;;;;;;3.90;2.20;;;;;;;15.02;58.99;94835.94;5070635;28;20040;-79
2022/10/03 10:45:11;;;;;;;2.70;2.20;;;;;;;15.06;57.68;94835.47;5071884;28;20046;-78
2022/10/03 10:47:59;;;;;;;2.67;2.25;;;;;;;15.08;58.30;94817.81;5070960;28;20037;-78
2022/10/03 10:50:42;;;;;;;2.65;2.22;;;;;;;15.03;57.87;94827.09;5071712;28;20077;-78
2022/10/03 10:53:08;;;;;;;4.78;2.80;;;;;;;15.04;58.06;94829.56;5070529;28;20536;-78
2022/10/03 10:55:58;;;;;;;3.58;2.22;;;;;;;15.18;57.48;94821.16;5071459;28;20100;-78
2022/10/03 10:58:57;;;;;;;2.38;2.17;;;;;;;15.17;57.52;94821.31;5071926;28;20046;-78
2022/10/03 11:01:44;;;;;;;2.17;1.60;;;;;;;15.14;55.72;94835.50;5056180;28;20123;-78
2022/10/03 11:04:28;;;;;;;1.95;1.50;;;;;;;15.14;55.88;94822.44;5071449;28;20486;-78
2022/10/03 11:07:15;;;;;;;2.40;1.60;;;;;;;15.18;55.06;94822.94;5070088;28;20041;-78
2022/10/03 11:09:50;;;;;;;2.10;1.80;;;;;;;15.06;55.73;94822.38;5071491;28;20465;-78
2022/10/03 11:12:55;;;;;;;2.80;1.40;;;;;;;15.10;55.96;94821.13;5070155;28;20035;-78
2022/10/03 11:15:53;;;;;;;3.75;1.60;;;;;;;15.16;56.94;94828.34;5071228;28;20028;-78
2022/10/03 11:18:46;;;;;;;2.63;2.00;;;;;;;15.26;56.44;94820.38;5053625;28;20098;-79
2022/10/03 11:21:38;;;;;;;2.53;2.00;;;;;;;15.19;57.04;94817.56;5069901;28;20036;-78
2022/10/03 11:24:41;;;;;;;2.00;1.70;;;;;;;15.16;56.62;94825.72;5037920;28;20127;-78
2022/10/03 11:27:44;;;;;;;3.20;1.70;;;;;;;15.12;55.71;94816.53;5071440;28;20082;-78
2022/10/03 11:30:28;;;;;;;2.67;1.98;;;;;;;15.16;56.31;94830.94;5071066;28;20434;-78
2022/10/03 11:33:39;;;;;;;3.42;2.05;;;;;;;15.13;56.13;94841.72;5071349;28;20119;-78
2022/10/03 11:36:37;;;;;;;4.15;2.00;;;;;;;15.16;56.35;94836.19;5070866;28;20044;-78
2022/10/03 11:39:07;;;;;;;3.40;2.10;;;;;;;15.25;56.63;94834.44;5053019;28;20052;-78
2022/10/03 11:41:45;;;;;;;3.30;2.00;;;;;;;15.25;56.54;94831.81;5053856;28;20093;-77
2022/10/03 11:44:22;;;;;;;5.00;2.08;;;;;;;15.12;56.14;94834.84;5069862;28;20044;-78
2022/10/03 11:47:13;;;;;;;4.05;2.10;;;;;;;15.08;56.67;94832.69;5053317;28;20020;-78
2022/10/03 11:49:58;;;;;;;4.53;2.47;;;;;;;15.12;55.69;94829.59;5071048;28;20677;-78
2022/10/03 11:52:26;;;;;;;4.13;2.42;;;;;;;15.15;55.44;94829.28;5069762;28;20364;-78
2022/10/03 11:55:15;;;;;;;3.17;2.47;;;;;;;15.14;53.95;94825.03;5069672;28;20449;-78
2022/10/03 11:57:40;;;;;;;3.40;2.90;;;;;;;14.97;54.04;94807.63;5070947;28;20029;-78
2022/10/03 12:00:15;;;;;;;4.10;2.92;;;;;;;14.92;54.62;94820.34;5052800;28;20039;-78
2022/10/03 12:02:50;;;;;;;3.88;2.75;;;;;;;15.05;55.07;94823.38;5069632;28;20033;-78
2022/10/03 12:05:41;;;;;;;2.80;2.47;;;;;;;14.95;53.66;94820.84;5070687;28;20065;-78
2022/10/03 12:11:12;;;;;;;3.17;2.60;;;;;;;15.04;54.13;94818.28;5075081;28;20048;-78
2022/10/03 12:13:56;;;;;;;4.07;2.80;;;;;;;15.11;53.69;94809.66;5058395;28;20056;-79
2022/10/03 12:17:01;;;;;;;3.60;2.67;;;;;;;15.24;53.63;94829.34;5074754;28;20086;-79
2022/10/03 12:19:29;;;;;;;4.95;2.70;;;;;;;15.25;52.50;94812.69;5070080;28;20429;-78
2022/10/03 12:21:56;;;;;;;3.80;2.60;;;;;;;15.30;53.28;94818.28;5073242;28;20028;-79
2022/10/03 12:24:26;;;;;;;4.45;3.13;;;;;;;15.17;53.19;94822.13;5056741;28;20072;-78
2022/10/03 12:26:58;;;;;;;3.45;2.78;;;;;;;15.06;53.80;94819.75;5056904;28;20024;-78
2022/10/03 12:29:24;;;;;;;4.00;3.60;;;;;;;15.06;54.21;94819.75;5073497;28;20032;-78
2022/10/03 12:32:05;;;;;;;4.20;3.80;;;;;;;15.17;54.60;94805.59;5039934;28;20475;-78
2022/10/03 12:34:51;;;;;;;5.93;4.20;;;;;;;15.27;54.33;94826.44;5057444;28;20521;-79
2022/10/03 12:37:38;;;;;;;3.70;3.38;;;;;;;15.27;54.40;94824.63;5072833;28;20418;-79
2022/10/03 12:40:05;;;;;;;3.67;3.28;;;;;;;15.36;53.30;94818.47;5072907;28;20040;-79
2022/10/03 12:43:00;;;;;;;3.33;3.03;;;;;;;15.39;53.43;94814.72;5074428;28;20040;-79
2022/10/03 12:45:42;;;;;;;6.20;4.00;;;;;;;15.42;52.95;94809.16;5074218;28;20027;-79
2022/10/03 12:48:32;;;;;;;3.95;3.20;;;;;;;15.40;51.63;94806.69;5057560;28;20490;-78
2022/10/03 12:51:05;;;;;;;4.80;2.90;;;;;;;15.45;49.12;94803.63;5073997;28;20024;-78
2022/10/03 12:53:37;;;;;;;4.30;3.05;;;;;;;15.63;49.93;94801.75;5073025;28;20123;-79
2022/10/03 12:56:08;;;;;;;3.30;3.00;;;;;;;15.55;49.46;94798.28;5072800;28;20063;-78
2022/10/03 12:58:58;;;;;;;3.28;2.97;;;;;;;15.65;48.51;94810.22;5074434;28;20073;-78
2022/10/03 13:01:45;;;;;;;3.22;2.72;;;;;;;15.57;48.77;94801.53;5073918;28;20047;-78
2022/10/03 13:04:32;;;;;;;3.30;3.00;;;;;;;15.68;48.66;94814.38;5073871;28;20040;-78
2022/10/03 13:07:17;;;;;;;3.50;3.20;;;;;;;15.83;48.90;94811.97;5072437;28;20399;-78
2022/10/03 13:10:11;;;;;;;5.65;3.88;;;;;;;15.98;49.63;94809.56;5073759;28;20380;-78
2022/10/03 13:12:49;;;;;;;3.85;3.47;;;;;;;16.11;49.24;94804.69;5072642;28;20094;-78